Time;durP1;ratioP1;P1;durP2;ratioP2;P2;SDS_P1;SDS_P2;PMS_P1;PMS_P2;Temp;Humidity;BMP_temperature;BMP_pressure;BME280_temperature;BME280_humidity;BME280_pressure;Samples;Min_cycle;Max_cycle;Signal;HPM_P1;HPM_P2
2022/09/08 00:00:28;;;;;;;29.13;24.20;;;15.50;59.50;;;;;;5034633;28;20124;-25
2022/09/08 00:02:55;;;;;;;26.25;21.88;;;15.50;69.30;;;;;;5035748;28;20115;-25
2022/09/08 00:05:24;;;;;;;25.27;22.02;;;15.50;77.00;;;;;;5035609;28;20033;-25
2022/09/08 00:07:53;;;;;;;25.80;22.63;;;15.50;65.00;;;;;;5018245;28;20099;-25
2022/09/08 00:10:19;;;;;;;22.15;19.67;;;15.60;80.50;;;;;;5035618;28;20127;-25
2022/09/08 00:12:47;;;;;;;20.95;18.73;;;15.60;48.80;;;;;;5035617;28;20103;-25
2022/09/08 00:15:13;;;;;;;24.20;19.65;;;15.60;33.20;;;;;;5035569;28;20045;-25
2022/09/08 00:17:39;;;;;;;21.60;18.77;;;15.60;1.00;;;;;;5034568;28;20053;-25
2022/09/08 00:20:07;;;;;;;23.00;19.27;;;15.60;1.00;;;;;;5035122;28;20045;-25
2022/09/08 00:22:33;;;;;;;19.80;17.77;;;15.50;1.00;;;;;;5034473;28;20064;-25
2022/09/08 00:24:59;;;;;;;23.17;19.17;;;15.50;1.00;;;;;;5035294;28;20124;-25
2022/09/08 00:27:24;;;;;;;23.73;19.48;;;15.60;1.00;;;;;;5035851;28;20088;-25
2022/09/08 00:29:50;;;;;;;18.95;16.98;;;15.50;1.00;;;;;;5035294;28;20077;-25
2022/09/08 00:32:17;;;;;;;22.75;16.52;;;15.50;1.00;;;;;;5034017;28;20545;-25
2022/09/08 00:34:43;;;;;;;20.77;18.65;;;15.50;1.00;;;;;;5035177;28;20053;-25
2022/09/08 00:37:09;;;;;;;21.13;18.92;;;15.50;1.00;;;;;;5035020;28;20191;-25
2022/09/08 00:39:34;;;;;;;21.45;19.23;;;15.50;1.00;;;;;;5034210;28;20057;-25
2022/09/08 00:42:00;;;;;;;19.52;17.52;;;15.50;1.00;;;;;;5035606;28;20483;-25
2022/09/08 00:44:49;;;;;;;23.77;18.60;;;15.50;1.00;;;;;;5035345;28;20041;-25
2022/09/08 00:47:23;;;;;;;21.55;18.25;;;15.50;1.00;;;;;;5034007;28;20056;-25
2022/09/08 00:50:02;;;;;;;22.92;16.88;;;15.50;1.00;;;;;;5017761;28;20060;-25
2022/09/08 00:52:34;;;;;;;20.77;18.45;;;15.50;99.90;;;;;;5033887;28;20499;-25
2022/09/08 00:55:00;;;;;;;19.52;17.25;;;15.40;99.90;;;;;;5035400;28;20045;-25
2022/09/08 00:57:26;;;;;;;26.55;19.35;;;15.40;99.90;;;;;;5034741;28;20057;-25
2022/09/08 00:59:52;;;;;;;22.50;20.10;;;15.40;99.90;;;;;;5035249;28;20050;-25
2022/09/08 01:02:25;;;;;;;21.45;19.05;;;15.40;99.90;;;;;;5034908;28;20096;-25
2022/09/08 01:04:57;;;;;;;24.33;19.63;;;15.30;99.90;;;;;;5033815;28;20085;-25
2022/09/08 01:13:20;;;;;;;23.05;20.60;;;15.20;99.90;;;;;;5035093;28;20053;-25
2022/09/08 01:15:46;;;;;;;30.13;20.92;;;15.10;99.90;;;;;;5035197;28;20395;-25
2022/09/08 01:18:12;;;;;;;28.60;22.25;;;15.10;99.90;;;;;;5033491;28;20185;-25
2022/09/08 01:21:28;;;;;;;32.30;23.98;;;15.10;1.00;;;;;;5034852;28;20056;-25
2022/09/08 01:24:20;;;;;;;26.58;22.25;;;15.10;1.00;;;;;;5032637;28;20060;-25
2022/09/08 01:27:09;;;;;;;26.60;22.00;;;15.10;1.00;;;;;;5034272;28;20479;-25
2022/09/08 01:29:36;;;;;;;27.38;23.70;;;15.10;1.00;;;;;;5033323;28;20081;-26
2022/09/08 01:32:04;;;;;;;28.92;24.98;;;15.10;1.00;;;;;;5034184;28;20054;-25
2022/09/08 01:34:38;;;;;;;29.40;25.65;;;15.10;1.00;;;;;;5034691;28;20052;-25
2022/09/08 01:37:04;;;;;;;32.17;27.83;;;15.10;1.00;;;;;;5033930;28;20140;-25
2022/09/08 01:39:30;;;;;;;33.45;26.95;;;15.10;1.00;;;;;;5033393;28;20132;-25
2022/09/08 01:41:55;;;;;;;32.85;28.95;;;15.10;1.00;;;;;;5032798;28;20084;-25
2022/09/08 01:44:22;;;;;;;33.35;28.63;;;15.10;1.00;;;;;;5034392;28;20353;-25
2022/09/08 01:46:48;;;;;;;39.55;30.95;;;15.10;1.00;;;;;;5032805;28;20081;-25
2022/09/08 01:49:14;;;;;;;40.40;32.55;;;15.10;6.40;;;;;;5034399;28;20151;-25
2022/09/08 01:51:40;;;;;;;36.38;31.23;;;15.10;15.00;;;;;;5032681;28;20191;-25
2022/09/08 01:54:05;;;;;;;38.47;31.85;;;15.20;46.70;;;;;;5033864;28;20054;-25
2022/09/08 01:56:32;;;;;;;41.20;35.25;;;15.20;85.80;;;;;;5033815;28;20561;-25
2022/09/08 01:58:58;;;;;;;39.70;32.92;;;15.20;79.10;;;;;;5033993;28;20049;-25
2022/09/08 02:01:23;;;;;;;43.63;34.55;;;15.20;96.70;;;;;;5034270;28;20103;-25
2022/09/08 02:03:49;;;;;;;40.10;32.97;;;15.30;98.90;;;;;;5033604;28;20107;-25
2022/09/08 02:06:15;;;;;;;43.92;34.92;;;15.30;99.80;;;;;;5033699;28;20107;-25
2022/09/08 02:08:43;;;;;;;40.90;34.88;;;15.40;99.90;;;;;;5034467;28;20045;-25
2022/09/08 02:11:09;;;;;;;43.30;36.67;;;15.40;99.90;;;;;;5033286;28;20554;-25
2022/09/08 02:13:35;;;;;;;44.58;37.58;;;15.50;99.90;;;;;;5034120;28;20140;-25
2022/09/08 02:16:11;;;;;;;47.97;35.53;;;15.50;99.90;;;;;;5034105;28;20045;-25
2022/09/08 02:18:38;;;;;;;40.83;34.60;;;15.60;99.90;;;;;;5032441;28;20041;-25
2022/09/08 02:21:10;;;;;;;37.42;33.38;;;15.80;99.90;;;;;;5015861;28;20049;-25
2022/09/08 02:23:39;;;;;;;39.38;35.08;;;15.80;99.90;;;;;;5032027;28;20518;-25
2022/09/08 02:26:06;;;;;;;40.13;33.88;;;15.90;99.90;;;;;;5033384;28;20073;-25
2022/09/08 02:28:32;;;;;;;38.17;33.45;;;16.00;99.90;;;;;;5015507;28;20050;-26
2022/09/08 02:31:01;;;;;;;40.38;36.10;;;16.10;88.10;;;;;;5033744;28;20111;-25
2022/09/08 02:33:28;;;;;;;38.47;34.28;;;16.10;52.50;;;;;;5033433;28;20049;-26
2022/09/08 02:35:54;;;;;;;40.83;34.38;;;16.20;24.70;;;;;;5033224;28;20056;-26
2022/09/08 02:38:24;;;;;;;42.88;35.95;;;16.20;15.60;;;;;;5031849;28;20053;-25
2022/09/08 02:40:50;;;;;;;41.05;33.88;;;16.30;1.00;;;;;;5034173;28;20056;-25
2022/09/08 02:43:16;;;;;;;41.67;35.60;;;16.40;1.00;;;;;;5033253;28;20042;-25
2022/09/08 02:45:42;;;;;;;39.65;35.25;;;16.50;1.00;;;;;;5033181;28;20480;-25
2022/09/08 02:48:08;;;;;;;40.20;35.63;;;16.50;1.00;;;;;;4998938;28;20049;-25
2022/09/08 02:50:33;;;;;;;40.88;35.28;;;16.50;1.00;;;;;;5033774;28;20044;-25
2022/09/08 02:52:59;;;;;;;39.30;35.05;;;16.60;1.00;;;;;;5033228;28;20057;-26
2022/09/08 02:55:25;;;;;;;40.92;35.15;;;16.60;1.00;;;;;;5033206;28;20476;-25
2022/09/08 02:57:51;;;;;;;43.60;35.90;;;16.70;1.00;;;;;;5032839;28;20087;-25
2022/09/08 03:00:18;;;;;;;40.05;34.88;;;16.70;1.00;;;;;;5033176;28;20060;-25
2022/09/08 03:02:45;;;;;;;43.10;35.08;;;16.70;1.00;;;;;;5035255;28;20055;-25
2022/09/08 03:05:11;;;;;;;49.08;36.88;;;16.70;1.00;;;;;;5037380;28;20041;-25
2022/09/08 03:07:37;;;;;;;46.10;36.05;;;16.70;1.00;;;;;;5036164;28;20051;-25
2022/09/08 03:10:05;;;;;;;44.13;36.60;;;16.70;99.90;;;;;;5036981;28;20136;-25
2022/09/08 03:12:31;;;;;;;42.58;35.92;;;16.70;1.00;;;;;;5036392;28;20471;-25
2022/09/08 03:14:56;;;;;;;40.03;35.00;;;16.70;99.90;;;;;;5035442;28;20072;-25
2022/09/08 03:17:22;;;;;;;40.65;36.45;;;16.70;99.90;;;;;;5037437;28;20123;-25
2022/09/08 03:19:49;;;;;;;41.83;36.13;;;16.70;99.90;;;;;;5035377;28;20067;-25
2022/09/08 03:22:16;;;;;;;39.58;35.22;;;16.70;99.90;;;;;;5036618;28;20111;-25
2022/09/08 03:24:42;;;;;;;45.83;35.15;;;16.80;99.90;;;;;;5035450;28;20045;-25
2022/09/08 03:27:08;;;;;;;43.55;35.58;;;16.80;99.90;;;;;;5037266;28;20108;-25
2022/09/08 03:29:36;;;;;;;44.88;39.30;;;16.80;99.90;;;;;;5036425;28;20399;-25
2022/09/08 03:32:03;;;;;;;43.97;38.42;;;16.80;99.90;;;;;;5036374;28;20048;-26
2022/09/08 03:34:28;;;;;;;43.40;37.40;;;16.80;99.90;;;;;;5036354;28;20395;-25
2022/09/08 03:36:54;;;;;;;46.17;37.72;;;16.80;99.90;;;;;;5036033;28;20045;-26
2022/09/08 03:39:20;;;;;;;46.33;38.35;;;16.70;99.90;;;;;;5037108;28;20058;-25
2022/09/08 03:41:46;;;;;;;42.65;36.20;;;16.70;99.90;;;;;;5036186;28;20568;-25
2022/09/08 03:44:12;;;;;;;42.38;37.47;;;16.70;99.90;;;;;;5018883;28;20137;-25
2022/09/08 03:46:38;;;;;;;42.53;36.92;;;16.70;99.90;;;;;;5036137;28;20124;-26
2022/09/08 03:49:04;;;;;;;43.35;38.55;;;16.70;99.90;;;;;;5034893;28;20085;-25
2022/09/08 03:51:30;;;;;;;46.45;39.75;;;16.70;99.90;;;;;;5035320;28;20056;-25
2022/09/08 03:54:47;;;;;;;46.10;38.33;;;16.70;99.90;;;;;;5036012;28;20045;-25
2022/09/08 03:56:45;;;;;;;46.25;38.50;;;16.70;99.90;;;;;;5035919;28;20103;-26
2022/09/08 03:59:12;;;;;;;47.72;39.70;;;16.60;99.90;;;;;;5035175;28;20060;-25
2022/09/08 04:01:38;;;;;;;45.45;40.20;;;16.60;99.90;;;;;;5036392;28;20053;-25
2022/09/08 04:04:04;;;;;;;48.45;41.75;;;16.60;99.90;;;;;;5035681;28;20041;-25
2022/09/08 04:06:30;;;;;;;52.22;43.30;;;16.60;99.90;;;;;;5036023;28;20136;-25
2022/09/08 04:08:56;;;;;;;49.50;41.60;;;16.50;99.90;;;;;;5034552;28;20045;-25
2022/09/08 04:11:22;;;;;;;50.28;41.83;;;16.50;99.90;;;;;;5034485;28;20049;-26
2022/09/08 04:13:50;;;;;;;48.35;42.53;;;16.50;1.00;;;;;;5034629;28;20064;-25
2022/09/08 04:16:16;;;;;;;52.13;44.75;;;16.50;1.00;;;;;;5035534;28;20046;-25
2022/09/08 04:18:43;;;;;;;50.05;41.20;;;16.50;1.00;;;;;;5035599;28;20053;-25
2022/09/08 04:21:09;;;;;;;49.33;41.45;;;16.50;1.00;;;;;;5035445;28;20060;-25
2022/09/08 04:23:34;;;;;;;48.17;42.60;;;16.50;1.00;;;;;;5035680;28;20041;-25
2022/09/08 04:26:06;;;;;;;48.40;42.03;;;16.50;1.00;;;;;;5034190;28;20149;-25
2022/09/08 04:28:33;;;;;;;51.75;43.95;;;16.50;1.00;;;;;;5035026;28;20403;-25
2022/09/08 04:31:03;;;;;;;49.65;44.30;;;16.50;1.00;;;;;;5035261;28;20050;-25
2022/09/08 04:33:30;;;;;;;50.08;43.28;;;16.50;1.00;;;;;;5035220;28;20056;-25
2022/09/08 04:35:56;;;;;;;53.78;47.00;;;16.50;1.00;;;;;;5034022;28;20045;-25
2022/09/08 04:38:22;;;;;;;58.47;45.40;;;16.50;1.00;;;;;;5034962;28;20064;-25
2022/09/08 04:40:47;;;;;;;51.92;44.13;;;16.50;1.00;;;;;;5033844;28;20089;-25
2022/09/08 04:43:13;;;;;;;56.78;47.58;;;16.50;1.00;;;;;;5034965;28;20049;-25
2022/09/08 04:45:39;;;;;;;56.72;45.72;;;16.50;1.00;;;;;;5034936;28;20048;-25
2022/09/08 04:48:04;;;;;;;55.08;45.80;;;16.50;1.00;;;;;;5033669;28;20476;-25
2022/09/08 04:50:30;;;;;;;55.92;47.55;;;16.50;1.00;;;;;;5035460;28;20055;-25
2022/09/08 04:52:56;;;;;;;62.65;48.20;;;16.50;1.00;;;;;;5035401;28;20060;-25
2022/09/08 04:55:22;;;;;;;56.72;47.95;;;16.50;1.00;;;;;;5035325;28;20037;-25
2022/09/08 04:57:48;;;;;;;57.28;46.65;;;16.50;1.00;;;;;;5034717;28;20049;-25
2022/09/08 05:00:14;;;;;;;57.28;48.97;;;16.50;1.00;;;;;;5034670;28;20087;-25
2022/09/08 05:02:40;;;;;;;55.95;46.90;;;16.50;1.00;;;;;;5034579;28;20045;-25
2022/09/08 05:05:06;;;;;;;60.80;47.70;;;16.50;1.00;;;;;;5034495;28;20058;-25
2022/09/08 05:07:32;;;;;;;69.95;51.45;;;16.50;1.00;;;;;;5035092;28;20052;-25
2022/09/08 05:09:57;;;;;;;64.15;51.85;;;16.50;1.00;;;;;;5034772;28;20045;-27
2022/09/08 05:12:23;;;;;;;64.53;51.38;;;16.60;1.00;;;;;;5034436;28;20514;-26
2022/09/08 05:14:49;;;;;;;66.57;53.22;;;16.60;1.00;;;;;;5034453;28;20045;-26
2022/09/08 05:17:15;;;;;;;69.20;52.13;;;16.60;1.00;;;;;;5034428;28;20045;-25
2022/09/08 05:19:41;;;;;;;67.50;52.58;;;16.60;1.00;;;;;;5033674;28;20049;-25
2022/09/08 05:22:07;;;;;;;72.60;55.63;;;16.60;1.00;;;;;;5033178;28;20063;-25
2022/09/08 05:24:32;;;;;;;63.05;51.42;;;16.60;1.00;;;;;;5033215;28;20471;-26
2022/09/08 05:26:58;;;;;;;56.80;48.58;;;16.70;1.00;;;;;;5034088;28;20064;-26
2022/09/08 05:29:24;;;;;;;71.03;52.80;;;16.70;1.00;;;;;;5035078;28;20365;-25
2022/09/08 05:31:49;;;;;;;66.70;53.67;;;16.80;1.00;;;;;;5034138;28;20045;-25
2022/09/08 05:34:15;;;;;;;68.43;54.55;;;16.80;1.00;;;;;;5034125;28;20122;-25
2022/09/08 05:36:41;;;;;;;68.78;50.45;;;16.80;1.00;;;;;;5034090;28;20128;-26
2022/09/08 05:39:06;;;;;;;64.45;51.45;;;16.70;1.00;;;;;;5033800;28;20502;-25
2022/09/08 05:41:33;;;;;;;67.53;50.92;;;16.70;1.00;;;;;;5032733;28;20396;-25
2022/09/08 05:43:59;;;;;;;67.82;52.55;;;16.70;6.70;;;;;;5033802;28;20111;-25
2022/09/08 05:46:26;;;;;;;63.80;50.65;;;16.70;14.40;;;;;;5033951;28;20123;-26
2022/09/08 05:48:54;;;;;;;62.13;48.05;;;16.60;10.00;;;;;;5033956;28;20057;-25
2022/09/08 05:51:21;;;;;;;58.88;46.40;;;16.70;16.10;;;;;;5034698;28;20075;-26
2022/09/08 05:53:48;;;;;;;54.33;46.85;;;16.70;29.60;;;;;;5033881;28;20050;-26
2022/09/08 05:56:18;;;;;;;61.08;48.70;;;16.70;39.10;;;;;;5034602;28;20118;-26
2022/09/08 05:58:55;;;;;;;58.17;49.47;;;16.80;58.50;;;;;;5034371;28;20456;-25
2022/09/08 06:01:21;;;;;;;60.97;50.20;;;16.80;72.30;;;;;;5033746;28;20506;-26
2022/09/08 06:03:51;;;;;;;67.63;51.22;;;16.90;73.60;;;;;;5033423;28;20049;-25
2022/09/08 06:06:17;;;;;;;63.67;53.40;;;17.00;77.20;;;;;;5033896;28;20045;-26
2022/09/08 06:08:43;;;;;;;63.85;51.20;;;17.00;73.20;;;;;;5033639;28;20045;-25
2022/09/08 06:11:09;;;;;;;63.08;52.42;;;17.00;52.50;;;;;;5033648;28;20510;-26
2022/09/08 06:13:35;;;;;;;67.68;54.53;;;17.10;32.30;;;;;;5032437;28;20052;-25
2022/09/08 06:16:13;;;;;;;65.85;53.60;;;17.10;11.90;;;;;;5016000;28;20124;-26
2022/09/08 06:18:41;;;;;;;63.35;51.63;;;17.10;1.00;;;;;;5033229;28;20207;-26
2022/09/08 06:21:10;;;;;;;63.42;51.15;;;17.10;1.00;;;;;;5032407;28;20136;-26
2022/09/08 06:23:36;;;;;;;70.30;55.60;;;17.20;1.00;;;;;;5033803;28;20044;-26
2022/09/08 06:26:26;;;;;;;64.93;54.58;;;17.20;1.00;;;;;;5033489;28;20050;-26
2022/09/08 06:29:30;;;;;;;66.28;53.97;;;17.20;1.00;;;;;;5033598;28;20049;-26
2022/09/08 06:32:17;;;;;;;63.25;51.85;;;17.20;1.00;;;;;;5033428;28;20048;-26
2022/09/08 06:34:49;;;;;;;66.95;54.55;;;17.20;1.00;;;;;;5033452;28;20045;-26
2022/09/08 06:37:48;;;;;;;59.17;47.05;;;17.20;1.00;;;;;;5034456;28;20041;-26
2022/09/08 06:40:20;;;;;;;51.28;41.65;;;17.10;1.00;;;;;;5037918;28;20093;-25
2022/09/08 06:42:57;;;;;;;56.83;46.85;;;17.00;1.00;;;;;;5037622;28;20151;-25
2022/09/08 06:45:31;;;;;;;58.10;48.90;;;16.90;1.00;;;;;;5036186;28;20062;-25
2022/09/08 06:48:18;;;;;;;64.07;52.25;;;16.80;1.00;;;;;;5036273;28;20487;-25
2022/09/08 06:51:28;;;;;;;73.78;53.90;;;16.80;1.00;;;;;;5037475;28;20045;-25
2022/09/08 06:54:09;;;;;;;70.95;55.35;;;16.80;1.00;;;;;;5037668;28;20045;-25
2022/09/08 06:56:58;;;;;;;77.72;54.95;;;16.80;1.00;;;;;;5037024;28;20056;-25
2022/09/08 07:00:01;;;;;;;82.70;60.38;;;16.80;1.00;;;;;;5036472;28;20053;-23
2022/09/08 07:02:41;;;;;;;78.78;57.67;;;16.70;74.40;;;;;;5036960;28;20049;-22
2022/09/08 07:05:26;;;;;;;77.15;57.72;;;16.50;99.90;;;;;;5036595;28;20391;-20
2022/09/08 07:07:57;;;;;;;75.55;58.03;;;16.40;99.90;;;;;;5036770;28;20136;-20
2022/09/08 07:10:26;;;;;;;88.25;62.47;;;16.30;99.90;;;;;;5036856;28;20087;-20
2022/09/08 07:13:07;;;;;;;89.18;61.47;;;16.30;99.90;;;;;;5035514;28;20046;-21
2022/09/08 07:16:04;;;;;;;99.18;63.88;;;16.40;99.90;;;;;;5035544;28;20092;-21
2022/09/08 07:18:42;;;;;;;104.57;67.90;;;16.30;99.90;;;;;;5034381;28;20053;-21
2022/09/08 07:21:28;;;;;;;97.43;65.93;;;16.20;99.90;;;;;;5036653;28;20128;-21
2022/09/08 07:23:57;;;;;;;108.35;70.18;;;16.30;99.90;;;;;;5035902;28;20089;-20
2022/09/08 07:26:38;;;;;;;115.47;73.00;;;16.20;99.90;;;;;;5037329;28;20049;-21
2022/09/08 07:29:30;;;;;;;105.97;68.03;;;16.20;99.90;;;;;;5036467;28;20132;-22
2022/09/08 07:31:58;;;;;;;99.82;66.32;;;16.20;99.90;;;;;;5036916;28;20095;-22
2022/09/08 07:34:30;;;;;;;104.32;64.82;;;16.10;99.90;;;;;;5036366;28;20091;-23
2022/09/08 07:37:11;;;;;;;110.40;65.38;;;16.00;99.90;;;;;;5036691;28;20053;-23
2022/09/08 07:39:48;;;;;;;128.95;68.63;;;16.10;99.90;;;;;;5036572;28;20049;-26
2022/09/08 07:42:15;;;;;;;143.20;76.78;;;16.10;99.90;;;;;;5035571;28;20107;-27
2022/09/08 07:44:41;;;;;;;127.35;68.35;;;16.00;99.90;;;;;;5034987;28;20546;-27
2022/09/08 07:47:26;;;;;;;125.22;71.35;;;16.00;99.90;;;;;;5034925;28;20056;-29
2022/09/08 07:50:09;;;;;;;148.77;72.30;;;16.10;99.90;;;;;;5033512;28;20046;-29
2022/09/08 07:52:47;;;;;;;130.43;70.22;;;16.10;99.90;;;;;;5035377;28;20054;-29
2022/09/08 07:55:21;;;;;;;157.90;73.78;;;16.20;99.90;;;;;;5036755;28;20068;-29
2022/09/08 07:57:59;;;;;;;140.52;72.15;;;16.30;99.90;;;;;;5036805;28;20099;-30
2022/09/08 08:01:00;;;;;;;151.10;76.18;;;16.10;99.90;;;;;;5018447;28;20084;-30
2022/09/08 08:03:37;;;;;;;167.68;77.78;;;15.80;99.90;;;;;;5018093;28;20491;-31
2022/09/08 08:06:14;;;;;;;177.60;78.57;;;16.40;99.90;;;;;;5035710;28;20534;-31
2022/09/08 08:09:22;;;;;;;150.30;75.32;;;15.70;99.90;;;;;;5036070;28;20041;-31
2022/09/08 08:11:56;;;;;;;152.63;74.00;;;15.90;99.90;;;;;;5035361;28;20495;-32
2022/09/08 08:14:49;;;;;;;140.93;67.90;;;16.10;99.90;;;;;;5035682;28;20042;-32
2022/09/08 08:17:37;;;;;;;119.18;60.28;;;16.50;99.90;;;;;;5018440;28;20049;-33
2022/09/08 08:20:17;;;;;;;117.25;59.20;;;16.20;99.90;;;;;;5036084;28;20426;-33
2022/09/08 08:23:12;;;;;;;85.13;47.97;;;15.90;99.90;;;;;;5035155;28;20503;-33
2022/09/08 08:25:57;;;;;;;70.50;44.70;;;16.10;99.90;;;;;;5025801;28;20084;-33
2022/09/08 08:28:23;;;;;;;41.38;29.58;;;15.50;99.90;;;;;;5034427;28;20053;-38
2022/09/08 08:31:25;;;;;;;42.08;29.63;;;16.40;99.90;;;;;;5036083;28;20038;-37
2022/09/08 08:34:34;;;;;;;45.05;28.80;;;15.40;99.90;;;;;;5035255;28;20100;-34
2022/09/08 08:37:05;;;;;;;29.17;20.80;;;15.20;99.90;;;;;;5034961;28;20088;-36
2022/09/08 08:39:35;;;;;;;20.00;16.48;;;15.20;99.90;;;;;;5035499;28;20076;-33
2022/09/08 08:42:57;;;;;;;19.83;17.00;;;16.00;99.90;;;;;;5034101;28;20111;-33
2022/09/08 08:45:32;;;;;;;21.42;16.65;;;16.10;99.90;;;;;;5026423;28;20061;-33
2022/09/08 08:48:04;;;;;;;22.65;17.52;;;16.10;99.90;;;;;;5035250;28;20128;-37
2022/09/08 08:50:38;;;;;;;28.90;22.07;;;14.90;99.90;;;;;;5033741;28;20046;-40
2022/09/08 08:53:25;;;;;;;26.65;19.70;;;15.80;99.90;;;;;;5035499;28;20056;-41
2022/09/08 08:56:30;;;;;;;20.38;15.70;;;16.00;99.90;;;;;;5035147;28;20124;-40
2022/09/08 08:58:55;;;;;;;14.27;11.75;;;15.50;99.90;;;;;;5035387;28;20403;-40
2022/09/08 09:01:42;;;;;;;11.88;10.20;;;15.60;99.90;;;;;;5033401;28;20053;-40
2022/09/08 09:04:26;;;;;;;17.88;14.55;;;14.50;99.90;;;;;;5033484;28;20506;-40
2022/09/08 09:07:30;;;;;;;23.73;19.50;;;14.50;99.90;;;;;;5034998;28;20085;-41
2022/09/08 09:10:06;;;;;;;26.52;21.85;;;14.50;99.90;;;;;;5033657;28;20434;-41
2022/09/08 09:12:43;;;;;;;23.75;18.55;;;14.60;99.90;;;;;;5034232;28;20045;-39
2022/09/08 09:15:37;;;;;;;23.38;18.38;;;15.10;99.90;;;;;;5034500;28;20049;-38
2022/09/08 09:18:33;;;;;;;14.75;12.25;;;16.00;99.90;;;;;;5034290;28;20419;-38
2022/09/08 09:21:03;;;;;;;9.77;6.05;;;14.70;99.90;;;;;;5034352;28;20057;-37
2022/09/08 09:24:06;;;;;;;6.57;5.70;;;14.80;99.90;;;;;;5035174;28;20045;-35
2022/09/08 09:26:33;;;;;;;7.72;5.03;;;16.00;99.90;;;;;;5035106;28;20046;-32
2022/09/08 09:29:21;;;;;;;5.55;4.95;;;14.70;99.90;;;;;;5033068;28;20128;-33
2022/09/08 09:32:11;;;;;;;5.82;5.00;;;15.10;99.90;;;;;;5034793;28;20060;-33
2022/09/08 09:34:52;;;;;;;6.00;4.55;;;16.10;99.90;;;;;;5034775;28;20068;-32
2022/09/08 09:37:58;;;;;;;5.32;4.82;;;15.40;99.90;;;;;;5033963;28;20132;-32
2022/09/08 09:40:23;;;;;;;5.30;4.80;;;14.90;99.90;;;;;;5034062;28;20049;-33
2022/09/08 09:42:49;;;;;;;6.18;5.50;;;15.20;99.90;;;;;;5033976;28;20045;-33
2022/09/08 09:45:27;;;;;;;5.95;4.88;;;15.20;99.90;;;;;;5033784;28;20048;-33
2022/09/08 09:48:17;;;;;;;6.43;5.68;;;16.70;99.90;;;;;;5016547;28;20503;-33
2022/09/08 09:50:56;;;;;;;8.50;6.40;;;16.90;99.90;;;;;;5033668;28;20511;-32
2022/09/08 09:53:52;;;;;;;10.82;8.15;;;16.20;99.90;;;;;;5033951;28;20045;-33
2022/09/08 09:56:27;;;;;;;6.38;5.55;;;15.60;99.90;;;;;;5033452;28;20131;-32
2022/09/08 09:59:29;;;;;;;12.88;10.02;;;16.30;99.90;;;;;;5016467;28;20483;-32
2022/09/08 10:02:42;;;;;;;8.32;7.53;;;17.00;99.90;;;;;;5033779;28;20128;-32
2022/09/08 10:05:45;;;;;;;10.60;9.52;;;15.60;99.90;;;;;;5033701;28;20053;-31
2022/09/08 10:08:23;;;;;;;14.55;11.70;;;16.00;99.90;;;;;;5034216;28;20053;-31
2022/09/08 10:11:11;;;;;;;14.55;11.43;;;16.70;99.90;;;;;;5034541;28;20434;-31
2022/09/08 10:14:04;;;;;;;12.18;10.98;;;16.70;99.90;;;;;;5033646;28;20041;-32
2022/09/08 10:17:00;;;;;;;19.63;13.93;;;16.10;99.90;;;;;;5033629;28;20049;-31
2022/09/08 10:19:53;;;;;;;10.95;9.88;;;16.80;99.90;;;;;;5033654;28;20072;-31
2022/09/08 10:22:39;;;;;;;10.27;9.20;;;16.90;99.90;;;;;;5034200;28;20084;-32
2022/09/08 10:25:16;;;;;;;10.85;9.73;;;16.50;99.90;;;;;;5034045;28;20046;-31
2022/09/08 10:28:06;;;;;;;7.00;6.30;;;17.00;99.90;;;;;;5033449;28;20384;-31
2022/09/08 10:30:50;;;;;;;9.05;8.15;;;16.90;99.90;;;;;;5033229;28;20500;-32
2022/09/08 10:33:39;;;;;;;9.10;8.15;;;16.20;99.90;;;;;;5033452;28;20132;-31
2022/09/08 10:36:10;;;;;;;10.35;9.05;;;16.80;99.90;;;;;;5033604;28;20403;-31
2022/09/08 10:39:27;;;;;;;12.50;10.02;;;16.50;99.90;;;;;;5032060;28;20064;-32
2022/09/08 10:42:01;;;;;;;9.45;8.43;;;17.00;99.90;;;;;;5021220;28;20057;-32
2022/09/08 10:44:47;;;;;;;11.68;9.30;;;16.10;99.90;;;;;;5033497;28;20057;-31
2022/09/08 10:47:34;;;;;;;11.63;7.25;;;17.00;99.90;;;;;;5032431;28;20045;-30
2022/09/08 10:50:19;;;;;;;7.88;6.35;;;15.90;99.90;;;;;;5033370;28;20072;-31
2022/09/08 10:53:13;;;;;;;10.05;7.28;;;16.50;99.90;;;;;;5033945;28;20064;-29
2022/09/08 10:56:15;;;;;;;7.13;6.35;;;15.80;99.90;;;;;;5033876;28;20121;-31
2022/09/08 10:59:42;;;;;;;11.48;7.70;;;16.70;99.90;;;;;;5034042;28;20053;-30
2022/09/08 11:02:34;;;;;;;10.55;8.45;;;15.90;99.90;;;;;;5033196;28;20053;-30
2022/09/08 11:05:34;;;;;;;7.97;7.18;;;16.90;99.90;;;;;;5032999;28;20046;-30
2022/09/08 11:08:12;;;;;;;8.23;7.32;;;16.40;99.90;;;;;;5033201;28;20054;-30
2022/09/08 11:11:22;;;;;;;10.38;7.60;;;15.90;99.90;;;;;;5015467;28;20052;-30
2022/09/08 11:14:06;;;;;;;10.93;7.45;;;16.60;99.90;;;;;;4995160;28;20503;-30
2022/09/08 11:17:02;;;;;;;7.50;5.80;;;16.40;99.90;;;;;;5028561;28;20068;-30
2022/09/08 11:19:38;;;;;;;8.82;6.15;;;16.90;99.90;;;;;;5033066;28;20084;-30
2022/09/08 11:22:34;;;;;;;7.97;6.57;;;17.10;99.90;;;;;;5033360;28;20136;-30
2022/09/08 11:25:09;;;;;;;7.03;6.32;;;17.20;99.90;;;;;;5019213;28;20099;-30
2022/09/08 11:27:54;;;;;;;6.53;5.68;;;17.20;99.90;;;;;;5036517;28;20046;-30
2022/09/08 11:30:23;;;;;;;5.70;5.13;;;17.10;99.90;;;;;;5035908;28;20046;-30
2022/09/08 11:32:48;;;;;;;7.20;4.43;;;16.10;99.90;;;;;;5036682;28;20128;-30
2022/09/08 11:35:45;;;;;;;6.72;3.97;;;17.00;99.90;;;;;;5036407;28;20460;-29
2022/09/08 11:38:17;;;;;;;5.63;3.30;;;16.70;99.90;;;;;;5034906;28;20578;-29
2022/09/08 11:41:05;;;;;;;4.18;2.15;;;16.70;99.90;;;;;;5035597;28;20155;-30
2022/09/08 11:43:46;;;;;;;6.30;3.30;;;15.80;99.90;;;;;;5036732;28;20124;-29
2022/09/08 11:46:54;;;;;;;7.90;4.30;;;16.20;99.90;;;;;;5036178;28;20049;-29
2022/09/08 11:49:44;;;;;;;8.43;4.38;;;16.90;99.90;;;;;;5035277;28;20045;-29
2022/09/08 11:52:29;;;;;;;8.43;4.47;;;16.90;99.90;;;;;;5036135;28;20064;-29
2022/09/08 11:55:25;;;;;;;7.25;3.35;;;15.90;99.90;;;;;;5035699;28;20038;-29
2022/09/08 11:58:37;;;;;;;4.80;3.00;;;16.70;99.90;;;;;;5035699;28;20403;-30
2022/09/08 12:01:32;;;;;;;6.90;3.60;;;15.90;99.90;;;;;;5035931;28;20559;-29
2022/09/08 12:04:19;;;;;;;8.93;3.78;;;15.80;99.90;;;;;;5035491;28;20365;-28
2022/09/08 12:07:02;;;;;;;7.75;3.45;;;16.40;99.90;;;;;;5036663;28;20052;-28
2022/09/08 12:09:45;;;;;;;6.53;4.20;;;15.90;99.90;;;;;;5035775;28;20051;-28
2022/09/08 12:12:28;;;;;;;7.15;3.90;;;16.30;99.90;;;;;;5036341;28;20041;-29
2022/09/08 12:15:15;;;;;;;6.67;3.87;;;16.80;99.90;;;;;;5035697;28;20052;-28
2022/09/08 12:18:13;;;;;;;5.47;3.55;;;17.00;99.90;;;;;;5035929;28;20355;-28
2022/09/08 12:20:51;;;;;;;6.55;3.70;;;16.10;99.90;;;;;;5018690;28;20095;-28
2022/09/08 12:23:17;;;;;;;5.03;3.47;;;16.10;99.90;;;;;;5035721;28;20526;-28
2022/09/08 12:26:12;;;;;;;8.18;4.50;;;16.10;99.90;;;;;;5036190;28;20041;-28
2022/09/08 12:29:15;;;;;;;7.03;3.80;;;16.70;99.90;;;;;;5036250;28;20049;-27
2022/09/08 12:31:53;;;;;;;11.90;5.80;;;16.10;99.90;;;;;;5035966;28;20049;-27
2022/09/08 12:34:46;;;;;;;8.90;5.32;;;16.90;99.90;;;;;;5034621;28;20381;-27
2022/09/08 12:37:33;;;;;;;7.35;4.65;;;16.20;99.90;;;;;;5035045;28;20060;-27
2022/09/08 12:40:23;;;;;;;6.70;3.78;;;17.20;99.90;;;;;;5034833;28;20500;-27
2022/09/08 12:43:10;;;;;;;17.30;10.45;;;16.40;99.90;;;;;;5035251;28;20049;-27
2022/09/08 12:45:45;;;;;;;100.28;90.18;;;16.40;99.90;;;;;;5035020;28;20045;-27
2022/09/08 12:48:43;;;;;;;47.20;42.95;;;17.00;99.90;;;;;;5035333;28;20048;-27
2022/09/08 12:51:23;;;;;;;25.55;23.10;;;17.20;99.90;;;;;;5034986;28;20071;-26
2022/09/08 12:54:12;;;;;;;30.75;27.73;;;16.60;99.90;;;;;;5035434;28;20052;-27
2022/09/08 12:57:07;;;;;;;20.60;18.60;;;16.50;99.90;;;;;;5034881;28;20147;-27
2022/09/08 12:59:54;;;;;;;25.00;22.38;;;16.80;99.90;;;;;;5034837;28;20558;-27
2022/09/08 13:03:01;;;;;;;73.45;67.13;;;16.90;99.90;;;;;;5034181;28;20049;-27
2022/09/08 13:05:35;;;;;;;40.88;37.50;;;17.20;99.90;;;;;;5015561;28;20050;-27
2022/09/08 13:08:15;;;;;;;22.40;17.17;;;16.50;99.90;;;;;;5034631;28;20403;-26
2022/09/08 13:10:45;;;;;;;11.98;9.32;;;16.90;99.90;;;;;;5035165;28;20103;-26
2022/09/08 13:13:38;;;;;;;19.95;9.95;;;17.10;99.90;;;;;;5017065;28;20088;-27
2022/09/08 13:16:06;;;;;;;19.45;12.73;;;16.70;99.90;;;;;;5034504;28;20088;-27
2022/09/08 13:18:41;;;;;;;15.85;8.50;;;17.20;99.90;;;;;;5034281;28;20132;-27
2022/09/08 13:21:23;;;;;;;12.98;7.75;;;16.80;99.90;;;;;;5034424;28;20049;-27
2022/09/08 13:23:59;;;;;;;9.57;6.63;;;17.30;99.90;;;;;;5035211;28;20049;-27
2022/09/08 13:26:44;;;;;;;9.88;5.47;;;17.10;99.90;;;;;;5033102;28;20049;-27